Time;durP1;ratioP1;P1;durP2;ratioP2;P2;SDS_P1;SDS_P2;PMS_P1;PMS_P2;Temp;Humidity;BMP_temperature;BMP_pressure;BME280_temperature;BME280_humidity;BME280_pressure;Samples;Min_cycle;Max_cycle;Signal;HPM_P1;HPM_P2
2023/07/17 00:00:16;;;;;;;8.90;3.35;;;22.10;39.00;;;;;;4949158;28;20066;-42
2023/07/17 00:02:44;;;;;;;5.88;3.50;;;22.10;39.00;;;;;;4949629;28;20055;-39
2023/07/17 00:05:11;;;;;;;6.22;3.05;;;22.10;39.10;;;;;;4949250;28;20073;-40
2023/07/17 00:07:39;;;;;;;4.55;2.70;;;22.00;39.10;;;;;;4947942;28;20055;-40
2023/07/17 00:10:08;;;;;;;7.55;2.97;;;22.00;39.10;;;;;;4948864;28;20431;-44
2023/07/17 00:12:36;;;;;;;5.45;3.35;;;22.10;39.20;;;;;;4948337;28;20512;-38
2023/07/17 00:15:05;;;;;;;6.57;3.13;;;22.00;39.10;;;;;;4948329;28;20384;-40
2023/07/17 00:17:32;;;;;;;4.85;3.15;;;22.00;39.20;;;;;;4949639;28;20059;-39
2023/07/17 00:20:00;;;;;;;6.30;3.10;;;22.00;39.30;;;;;;4948903;28;20518;-39
2023/07/17 00:22:27;;;;;;;7.22;3.10;;;22.00;39.40;;;;;;4947744;28;20058;-39
2023/07/17 00:24:55;;;;;;;7.22;3.30;;;22.00;39.40;;;;;;4948665;28;20055;-48
2023/07/17 00:27:22;;;;;;;6.40;3.25;;;22.00;39.40;;;;;;4947930;28;20055;-45
2023/07/17 00:29:51;;;;;;;9.30;3.33;;;21.90;39.30;;;;;;4948402;28;20062;-41
2023/07/17 00:32:18;;;;;;;6.15;3.33;;;21.90;39.40;;;;;;4948508;28;20071;-40
2023/07/17 00:34:45;;;;;;;10.20;3.65;;;21.90;39.40;;;;;;4948488;28;20066;-39
2023/07/17 00:37:12;;;;;;;7.82;3.38;;;21.90;39.40;;;;;;4948024;28;20070;-41
2023/07/17 00:39:40;;;;;;;6.93;3.42;;;21.90;39.50;;;;;;4949021;28;20503;-39
2023/07/17 00:42:08;;;;;;;6.25;3.40;;;21.90;39.60;;;;;;4947644;28;20059;-44
2023/07/17 00:44:36;;;;;;;6.82;3.10;;;21.90;39.70;;;;;;4948069;28;20607;-42
2023/07/17 00:47:06;;;;;;;5.68;3.30;;;21.80;39.70;;;;;;4947841;28;20066;-39
2023/07/17 00:49:34;;;;;;;6.55;3.55;;;21.80;39.80;;;;;;4947814;28;20054;-41
2023/07/17 00:52:04;;;;;;;5.28;2.90;;;21.80;39.80;;;;;;4947825;28;20537;-40
2023/07/17 00:54:33;;;;;;;6.43;3.30;;;21.80;39.90;;;;;;4949152;28;20063;-40
2023/07/17 00:57:04;;;;;;;4.85;2.70;;;21.80;39.90;;;;;;4947419;28;20424;-40
2023/07/17 00:59:32;;;;;;;7.35;3.53;;;21.80;40.00;;;;;;4947029;28;20066;-41
2023/07/17 01:02:00;;;;;;;6.22;3.35;;;21.80;40.00;;;;;;4948466;28;20067;-38
2023/07/17 01:04:28;;;;;;;9.27;4.03;;;21.80;39.80;;;;;;4958382;23;20063;-46
2023/07/17 01:06:56;;;;;;;7.95;3.70;;;21.70;39.70;;;;;;4944525;29;20053;-44
2023/07/17 01:09:23;;;;;;;7.75;4.05;;;21.70;39.60;;;;;;4946471;28;20067;-41
2023/07/17 01:11:50;;;;;;;9.25;4.20;;;21.80;39.60;;;;;;4945399;28;20380;-41
2023/07/17 01:14:18;;;;;;;7.95;3.65;;;21.70;39.70;;;;;;4943865;28;21565;-42
2023/07/17 01:16:47;;;;;;;8.70;4.07;;;21.70;39.80;;;;;;4945990;28;20403;-43
2023/07/17 01:19:14;;;;;;;6.03;3.10;;;21.70;39.90;;;;;;4945791;29;20063;-43
2023/07/17 01:21:49;;;;;;;5.82;3.65;;;21.70;40.00;;;;;;4945016;28;20510;-42
2023/07/17 01:24:18;;;;;;;6.07;3.38;;;21.70;40.30;;;;;;4944355;28;20047;-43
2023/07/17 01:26:45;;;;;;;6.85;3.53;;;21.70;40.20;;;;;;4945048;29;20054;-44
2023/07/17 01:29:13;;;;;;;5.82;3.30;;;21.80;40.30;;;;;;4945190;28;20517;-43
2023/07/17 01:31:41;;;;;;;6.20;3.45;;;21.80;40.10;;;;;;4945636;28;20065;-43
2023/07/17 01:34:08;;;;;;;6.43;3.30;;;21.80;40.20;;;;;;4945596;28;20055;-42
2023/07/17 01:36:36;;;;;;;9.48;2.75;;;21.80;40.30;;;;;;4943223;28;20864;-47
2023/07/17 01:39:03;;;;;;;5.55;3.15;;;21.80;40.10;;;;;;4944418;29;20055;-42
2023/07/17 01:41:32;;;;;;;7.35;3.90;;;21.80;40.10;;;;;;4944076;28;20055;-46
2023/07/17 01:43:59;;;;;;;7.53;3.33;;;21.80;40.20;;;;;;4940921;28;20074;-45
2023/07/17 01:46:26;;;;;;;4.93;3.10;;;21.90;40.10;;;;;;4943303;28;20062;-42
2023/07/17 01:48:54;;;;;;;7.90;3.25;;;21.90;39.90;;;;;;4945654;28;20050;-43
2023/07/17 01:51:21;;;;;;;6.10;3.10;;;21.90;40.00;;;;;;4944131;28;20058;-46
2023/07/17 01:53:48;;;;;;;7.35;3.40;;;21.80;39.90;;;;;;4941984;28;20047;-45
2023/07/17 01:56:16;;;;;;;10.70;3.78;;;21.90;40.10;;;;;;4945459;28;20428;-46
2023/07/17 01:58:44;;;;;;;8.98;3.80;;;21.80;40.20;;;;;;4944770;28;20062;-41
2023/07/17 02:01:12;;;;;;;6.82;3.60;;;21.80;40.30;;;;;;4943663;28;20070;-44
2023/07/17 02:03:39;;;;;;;6.55;3.05;;;21.80;40.40;;;;;;4934873;28;20067;-44
2023/07/17 02:06:07;;;;;;;5.03;2.78;;;21.80;40.70;;;;;;4927067;28;20058;-45
2023/07/17 02:08:34;;;;;;;6.85;2.78;;;21.80;40.90;;;;;;4928464;28;20415;-46
2023/07/17 02:11:01;;;;;;;7.22;3.00;;;21.80;41.00;;;;;;4926774;28;20527;-43
2023/07/17 02:13:28;;;;;;;4.60;2.25;;;21.70;41.10;;;;;;4926853;28;20047;-44
2023/07/17 02:15:57;;;;;;;10.02;3.38;;;21.70;41.40;;;;;;4926893;28;20055;-46
2023/07/17 02:18:24;;;;;;;8.02;3.10;;;21.70;41.70;;;;;;4927636;28;20063;-44
2023/07/17 02:20:52;;;;;;;5.30;2.50;;;21.60;41.80;;;;;;4926558;29;20067;-45
2023/07/17 02:23:19;;;;;;;6.25;2.58;;;21.60;41.90;;;;;;4927126;28;20074;-44
2023/07/17 02:25:46;;;;;;;3.92;1.95;;;21.60;42.10;;;;;;4927755;28;20063;-43
2023/07/17 02:28:15;;;;;;;6.47;2.60;;;21.50;42.20;;;;;;4927190;28;20076;-46
2023/07/17 02:30:42;;;;;;;4.63;2.25;;;21.50;42.50;;;;;;4926532;29;20807;-47
2023/07/17 02:33:11;;;;;;;5.63;2.50;;;21.50;42.50;;;;;;4927041;29;20051;-43
2023/07/17 02:35:38;;;;;;;5.43;2.55;;;21.40;42.70;;;;;;4927455;28;20059;-43
2023/07/17 02:38:05;;;;;;;6.35;2.15;;;21.40;42.80;;;;;;4926693;28;20059;-46
2023/07/17 02:40:33;;;;;;;3.97;1.95;;;21.40;43.40;;;;;;4926752;29;20051;-46
2023/07/17 02:43:00;;;;;;;3.45;2.22;;;21.30;42.90;;;;;;4927071;28;20530;-50
2023/07/17 02:45:27;;;;;;;4.22;2.30;;;21.30;43.20;;;;;;4926344;29;20055;-46
2023/07/17 02:47:54;;;;;;;6.18;2.42;;;21.20;43.50;;;;;;4926576;28;20055;-45
2023/07/17 02:50:23;;;;;;;3.42;1.98;;;21.20;43.60;;;;;;4926258;28;20055;-45
2023/07/17 02:52:50;;;;;;;5.22;2.40;;;21.10;43.60;;;;;;4926791;29;20055;-46
2023/07/17 02:55:18;;;;;;;4.47;2.20;;;21.10;43.80;;;;;;4927973;28;20388;-44
2023/07/17 02:57:45;;;;;;;4.93;2.10;;;21.10;43.80;;;;;;4926436;28;20059;-46
2023/07/17 03:00:14;;;;;;;4.38;2.10;;;21.10;43.80;;;;;;4926938;29;20063;-42
2023/07/17 03:02:43;;;;;;;4.18;1.80;;;21.10;43.90;;;;;;4925958;28;20496;-44
2023/07/17 03:05:11;;;;;;;3.38;1.80;;;21.10;43.90;;;;;;4925188;29;20063;-45
2023/07/17 03:07:42;;;;;;;4.72;2.05;;;21.00;44.50;;;;;;4926566;28;20060;-41
2023/07/17 03:10:10;;;;;;;3.88;2.33;;;21.00;44.00;;;;;;4927565;28;20446;-41
2023/07/17 03:12:37;;;;;;;2.63;1.88;;;21.10;44.10;;;;;;4926271;28;20052;-42
2023/07/17 03:15:05;;;;;;;5.03;2.15;;;21.00;44.10;;;;;;4925961;28;20055;-43
2023/07/17 03:17:33;;;;;;;3.75;2.10;;;21.00;44.10;;;;;;4925922;29;20059;-44
2023/07/17 03:20:01;;;;;;;4.07;2.10;;;21.00;44.30;;;;;;4926287;28;20063;-42
2023/07/17 03:22:28;;;;;;;5.05;1.85;;;21.00;44.30;;;;;;4925528;29;20419;-43
2023/07/17 03:24:56;;;;;;;4.28;2.13;;;21.00;44.40;;;;;;4926316;29;20055;-48
2023/07/17 03:27:24;;;;;;;4.53;2.50;;;21.00;44.70;;;;;;4926392;28;20405;-43
2023/07/17 03:29:51;;;;;;;4.45;2.50;;;21.00;44.80;;;;;;4926233;28;20063;-46
2023/07/17 03:32:18;;;;;;;4.47;2.50;;;21.00;44.90;;;;;;4925821;29;20070;-45
2023/07/17 03:34:45;;;;;;;5.30;2.40;;;21.00;45.10;;;;;;4926038;28;20048;-43
2023/07/17 03:37:13;;;;;;;2.92;1.98;;;21.00;45.20;;;;;;4926153;29;20060;-41
2023/07/17 03:39:40;;;;;;;4.25;2.42;;;20.90;45.30;;;;;;4927191;28;20059;-45
2023/07/17 03:42:11;;;;;;;4.95;2.88;;;20.90;45.40;;;;;;4926391;28;20064;-42
2023/07/17 03:44:38;;;;;;;4.78;2.28;;;20.90;45.50;;;;;;4926670;29;20054;-41
2023/07/17 03:47:06;;;;;;;4.05;2.20;;;20.90;45.50;;;;;;4926991;28;20055;-43
2023/07/17 03:49:33;;;;;;;6.60;2.88;;;20.90;45.60;;;;;;4929586;28;20055;-41
2023/07/17 03:52:01;;;;;;;5.60;2.78;;;20.90;45.60;;;;;;4944580;28;20066;-45
2023/07/17 03:54:28;;;;;;;4.47;2.22;;;20.90;45.50;;;;;;4944352;28;20062;-48
2023/07/17 03:56:55;;;;;;;3.55;2.30;;;20.80;45.30;;;;;;4944986;28;20058;-44
2023/07/17 03:59:24;;;;;;;4.80;2.30;;;20.80;45.30;;;;;;4945793;28;20507;-44
2023/07/17 04:01:53;;;;;;;3.70;2.03;;;20.80;45.30;;;;;;4945831;28;20062;-40
2023/07/17 04:04:20;;;;;;;6.80;3.20;;;20.80;45.30;;;;;;4944850;28;20066;-42
2023/07/17 04:06:47;;;;;;;5.28;2.75;;;20.70;45.50;;;;;;4944127;28;20055;-44
2023/07/17 04:09:15;;;;;;;5.03;2.42;;;20.70;45.60;;;;;;4945194;28;20047;-48
2023/07/17 04:11:45;;;;;;;4.93;1.95;;;20.70;45.80;;;;;;4944818;28;20059;-46
2023/07/17 04:14:13;;;;;;;5.07;2.80;;;20.70;45.90;;;;;;4946975;28;20050;-44
2023/07/17 04:16:41;;;;;;;4.53;2.30;;;20.70;46.00;;;;;;4947634;28;20055;-44
2023/07/17 04:19:09;;;;;;;5.60;2.65;;;20.70;46.10;;;;;;4946498;28;20051;-45
2023/07/17 04:21:36;;;;;;;4.60;2.60;;;20.60;46.00;;;;;;4943526;28;20618;-45
2023/07/17 04:24:05;;;;;;;3.15;2.38;;;20.60;46.10;;;;;;4943060;28;20050;-44
2023/07/17 04:26:32;;;;;;;6.55;2.60;;;20.60;46.30;;;;;;4944643;28;20051;-44
2023/07/17 04:28:59;;;;;;;4.65;2.47;;;20.60;46.50;;;;;;4946320;28;20055;-44
2023/07/17 04:31:27;;;;;;;5.03;2.78;;;20.60;46.60;;;;;;4945715;28;20063;-41
2023/07/17 04:33:58;;;;;;;4.13;2.83;;;20.50;46.50;;;;;;4945654;28;20059;-43
2023/07/17 04:36:25;;;;;;;6.65;3.10;;;20.50;46.40;;;;;;4948150;28;20062;-47
2023/07/17 04:38:52;;;;;;;4.38;2.60;;;20.50;46.50;;;;;;4948921;28;20507;-45
2023/07/17 04:41:19;;;;;;;4.43;2.33;;;20.50;46.50;;;;;;4947871;28;20063;-45
2023/07/17 04:43:47;;;;;;;6.43;2.88;;;20.50;46.60;;;;;;4948590;28;20081;-45
2023/07/17 04:46:15;;;;;;;3.50;2.22;;;20.50;46.70;;;;;;4948668;28;20522;-45
2023/07/17 04:48:43;;;;;;;4.30;2.38;;;20.50;46.70;;;;;;4948957;28;20121;-45
2023/07/17 04:51:12;;;;;;;5.22;2.33;;;20.50;46.80;;;;;;4947808;28;20050;-49
2023/07/17 04:53:39;;;;;;;4.60;2.67;;;20.50;46.90;;;;;;4948454;28;20055;-44
2023/07/17 04:56:09;;;;;;;4.57;2.58;;;20.50;47.10;;;;;;4949133;28;20062;-48
2023/07/17 04:58:37;;;;;;;6.18;2.92;;;20.50;47.20;;;;;;4947261;28;20406;-45
2023/07/17 05:01:05;;;;;;;8.48;4.60;;;20.50;47.10;;;;;;4947457;28;20058;-45
2023/07/17 05:03:33;;;;;;;6.63;3.17;;;20.50;47.10;;;;;;4947900;28;20059;-44
2023/07/17 05:06:00;;;;;;;6.18;2.75;;;20.60;47.10;;;;;;4947615;28;20051;-46
2023/07/17 05:08:29;;;;;;;6.00;2.28;;;20.60;47.10;;;;;;4947496;28;20055;-47
2023/07/17 05:10:57;;;;;;;3.88;2.28;;;20.60;47.10;;;;;;4948121;28;20420;-46
2023/07/17 05:13:24;;;;;;;5.57;2.33;;;20.60;47.10;;;;;;4947534;28;20078;-46
2023/07/17 05:15:52;;;;;;;5.28;2.92;;;20.60;47.00;;;;;;4949613;28;20055;-47
2023/07/17 05:18:19;;;;;;;4.60;2.33;;;20.70;47.10;;;;;;4947789;28;20059;-47
2023/07/17 05:20:48;;;;;;;6.40;2.53;;;20.70;47.00;;;;;;4947095;28;20055;-44
2023/07/17 05:23:16;;;;;;;4.03;2.35;;;20.70;47.00;;;;;;4947094;28;20062;-47
2023/07/17 05:25:53;;;;;;;6.28;2.10;;;20.70;47.00;;;;;;4946851;28;20051;-49
2023/07/17 05:28:28;;;;;;;5.78;2.50;;;20.70;47.10;;;;;;4945243;28;20685;-48
2023/07/17 05:30:56;;;;;;;4.47;2.20;;;20.70;47.20;;;;;;4946808;28;20506;-46
2023/07/17 05:33:25;;;;;;;5.78;2.40;;;20.70;47.00;;;;;;4949744;28;21625;-48
2023/07/17 05:35:52;;;;;;;4.75;2.33;;;20.70;46.90;;;;;;4945599;28;20066;-45
2023/07/17 05:38:27;;;;;;;4.47;2.20;;;20.80;46.90;;;;;;4946263;28;20051;-45
2023/07/17 05:41:03;;;;;;;4.15;2.17;;;20.80;46.80;;;;;;4947404;28;20055;-46
2023/07/17 05:43:31;;;;;;;4.90;2.15;;;20.80;46.70;;;;;;4947002;28;20811;-47
2023/07/17 05:45:58;;;;;;;2.92;2.00;;;20.80;46.60;;;;;;4945835;28;20059;-46
2023/07/17 05:48:26;;;;;;;4.43;2.17;;;20.80;46.60;;;;;;4948095;28;20066;-46
2023/07/17 05:50:53;;;;;;;4.30;2.38;;;20.90;46.60;;;;;;4945451;28;20070;-45
2023/07/17 05:53:20;;;;;;;4.10;2.15;;;20.80;46.40;;;;;;4946016;28;20051;-47
2023/07/17 05:55:47;;;;;;;4.93;2.40;;;20.90;46.40;;;;;;4947019;28;20404;-45
2023/07/17 05:58:16;;;;;;;5.25;2.70;;;20.90;46.40;;;;;;4947199;28;20055;-45
2023/07/17 06:00:45;;;;;;;4.03;2.28;;;20.90;46.40;;;;;;4947716;28;20054;-47
2023/07/17 06:03:13;;;;;;;4.03;1.92;;;21.00;46.40;;;;;;4946698;28;20423;-44
2023/07/17 06:05:40;;;;;;;5.82;2.35;;;20.90;46.30;;;;;;4945698;28;20455;-46
2023/07/17 06:08:08;;;;;;;3.67;2.20;;;21.00;46.40;;;;;;4946589;28;20058;-46
2023/07/17 06:10:36;;;;;;;4.85;2.47;;;21.00;46.50;;;;;;4947758;28;20710;-51
2023/07/17 06:13:03;;;;;;;6.15;2.05;;;21.10;46.40;;;;;;4946013;28;20067;-49
2023/07/17 06:15:32;;;;;;;5.85;2.45;;;21.10;46.00;;;;;;4946788;28;20051;-61
2023/07/17 06:17:59;;;;;;;3.72;1.70;;;21.20;45.80;;;;;;4947975;28;20058;-58
2023/07/17 06:20:26;;;;;;;5.00;2.00;;;21.20;45.90;;;;;;4945970;28;20518;-56
2023/07/17 06:22:54;;;;;;;4.30;1.90;;;21.20;45.00;;;;;;4946130;28;20055;-58
2023/07/17 06:25:21;;;;;;;4.47;2.20;;;21.20;45.10;;;;;;4947106;28;20051;-56
2023/07/17 06:27:48;;;;;;;6.72;2.33;;;21.30;45.20;;;;;;4946904;28;20061;-52
2023/07/17 06:30:15;;;;;;;3.88;1.90;;;21.30;45.40;;;;;;4946803;28;20062;-54
2023/07/17 06:32:45;;;;;;;5.47;2.22;;;21.30;45.10;;;;;;4947639;28;20059;-58
2023/07/17 06:35:12;;;;;;;7.18;2.38;;;21.30;45.20;;;;;;4945869;28;20074;-50
2023/07/17 06:37:39;;;;;;;5.78;2.10;;;21.30;45.10;;;;;;4945380;28;20062;-51
2023/07/17 06:40:10;;;;;;;3.85;1.75;;;21.30;45.40;;;;;;4946814;28;20410;-48
2023/07/17 06:42:38;;;;;;;3.60;2.20;;;21.30;45.50;;;;;;4945878;28;20070;-50
2023/07/17 06:45:06;;;;;;;7.57;2.47;;;21.40;45.60;;;;;;4946161;28;20055;-51
2023/07/17 06:47:34;;;;;;;5.10;2.42;;;21.40;45.60;;;;;;4945969;28;20062;-53
2023/07/17 06:50:02;;;;;;;4.63;1.95;;;21.50;45.60;;;;;;4946082;28;20066;-59
2023/07/17 06:52:30;;;;;;;5.10;2.28;;;21.50;45.50;;;;;;4946569;28;20066;-55
2023/07/17 06:54:57;;;;;;;4.53;2.40;;;21.50;45.20;;;;;;4948213;28;20062;-56
2023/07/17 06:57:24;;;;;;;5.15;2.10;;;21.50;45.20;;;;;;4944937;28;20427;-50
2023/07/17 06:59:51;;;;;;;2.67;1.65;;;21.50;45.20;;;;;;4945027;28;20059;-52
2023/07/17 07:02:19;;;;;;;5.03;2.13;;;21.50;45.20;;;;;;4945697;28;20065;-53
2023/07/17 07:04:46;;;;;;;5.20;1.80;;;21.50;44.50;;;;;;4945594;28;20055;-48
2023/07/17 07:07:15;;;;;;;3.90;1.70;;;21.50;44.50;;;;;;4946512;28;20043;-49
2023/07/17 07:09:42;;;;;;;4.00;1.80;;;21.50;44.50;;;;;;4946936;28;20063;-58
2023/07/17 07:12:10;;;;;;;5.25;1.98;;;21.50;44.60;;;;;;4945010;28;20411;-53
2023/07/17 07:14:37;;;;;;;4.03;1.70;;;21.50;44.30;;;;;;4946155;28;20065;-58
2023/07/17 07:17:04;;;;;;;3.65;1.70;;;21.50;44.10;;;;;;4945377;28;20055;-56
2023/07/17 07:19:32;;;;;;;8.07;2.03;;;21.50;44.50;;;;;;4945227;28;20066;-50
2023/07/17 07:21:59;;;;;;;4.78;1.45;;;21.50;44.10;;;;;;4945802;28;20401;-51
2023/07/17 07:24:27;;;;;;;4.82;2.50;;;21.60;44.30;;;;;;4946028;28;20069;-49
2023/07/17 07:26:55;;;;;;;3.45;1.90;;;21.60;43.60;;;;;;4946164;28;20051;-48
2023/07/17 07:29:22;;;;;;;3.40;1.73;;;21.60;43.70;;;;;;4945776;28;20051;-49
2023/07/17 07:31:49;;;;;;;4.15;1.92;;;21.60;43.40;;;;;;4945762;28;20082;-45
2023/07/17 07:34:16;;;;;;;2.67;1.77;;;21.70;43.70;;;;;;4947103;28;20066;-49
2023/07/17 07:36:44;;;;;;;4.60;2.25;;;21.70;43.80;;;;;;4944777;28;20059;-45
2023/07/17 07:39:11;;;;;;;4.97;1.90;;;21.70;43.70;;;;;;4947390;28;20059;-48
2023/07/17 07:41:40;;;;;;;4.35;1.85;;;21.80;43.70;;;;;;4945573;28;20403;-43
2023/07/17 07:44:07;;;;;;;5.68;2.70;;;21.90;43.70;;;;;;4945774;28;20055;-46
2023/07/17 07:46:34;;;;;;;4.53;2.38;;;21.90;43.60;;;;;;4944318;28;20555;-56
2023/07/17 07:49:03;;;;;;;3.88;2.25;;;21.90;43.10;;;;;;4945986;28;20070;-48
2023/07/17 07:51:30;;;;;;;5.15;2.65;;;21.90;42.60;;;;;;4945356;28;20055;-46
2023/07/17 07:53:57;;;;;;;6.03;2.38;;;21.90;42.90;;;;;;4947235;28;20415;-46
2023/07/17 07:56:26;;;;;;;5.05;2.70;;;21.90;42.80;;;;;;4947179;28;20047;-48
2023/07/17 07:58:57;;;;;;;5.95;2.42;;;22.00;42.80;;;;;;4945192;28;20055;-47
2023/07/17 08:01:26;;;;;;;7.00;2.55;;;22.10;42.80;;;;;;4946395;28;20413;-44
2023/07/17 08:03:54;;;;;;;5.10;2.20;;;22.10;42.70;;;;;;4945228;28;20054;-44
2023/07/17 08:06:21;;;;;;;4.53;2.13;;;22.10;42.50;;;;;;4943760;28;20051;-45
2023/07/17 08:08:48;;;;;;;5.53;2.58;;;22.20;42.60;;;;;;4947685;28;20055;-50
2023/07/17 08:11:16;;;;;;;6.00;2.78;;;22.20;42.50;;;;;;4949470;28;20518;-52
2023/07/17 08:13:43;;;;;;;3.55;2.28;;;22.30;42.50;;;;;;4949342;28;20520;-49
2023/07/17 08:16:11;;;;;;;5.38;2.03;;;22.30;42.50;;;;;;4948930;28;20503;-48
2023/07/17 08:18:39;;;;;;;5.00;2.35;;;22.30;42.60;;;;;;4949408;28;20047;-54
2023/07/17 08:21:06;;;;;;;4.55;2.63;;;22.40;42.60;;;;;;4948826;28;20062;-45
2023/07/17 08:23:33;;;;;;;4.03;2.20;;;22.40;42.50;;;;;;4945523;28;20050;-53
2023/07/17 08:26:00;;;;;;;7.75;2.40;;;22.40;42.20;;;;;;4949005;28;20403;-56
2023/07/17 08:28:27;;;;;;;6.55;2.55;;;22.50;41.30;;;;;;4947760;28;20055;-57
2023/07/17 08:30:55;;;;;;;7.13;2.50;;;22.40;41.40;;;;;;4949443;28;20583;-56
2023/07/17 08:33:25;;;;;;;5.05;2.40;;;22.50;41.20;;;;;;4948886;28;20418;-58
2023/07/17 08:35:52;;;;;;;4.88;2.90;;;22.50;41.50;;;;;;4946816;28;20451;-56
2023/07/17 08:38:19;;;;;;;7.25;3.15;;;22.50;41.70;;;;;;4949522;28;20055;-59
2023/07/17 08:40:51;;;;;;;4.72;2.60;;;22.50;41.40;;;;;;4948099;28;20066;-51
2023/07/17 08:43:18;;;;;;;6.88;2.60;;;22.50;41.50;;;;;;4947551;28;20066;-53
2023/07/17 08:45:47;;;;;;;4.95;2.45;;;22.50;41.60;;;;;;4948427;28;20063;-56
2023/07/17 08:48:14;;;;;;;6.68;2.70;;;22.60;41.70;;;;;;4948559;28;20070;-49
2023/07/17 08:50:43;;;;;;;6.00;2.63;;;22.60;41.70;;;;;;4947523;28;20543;-58
2023/07/17 08:53:12;;;;;;;6.60;2.88;;;22.60;41.90;;;;;;4948418;28;20055;-48
2023/07/17 08:55:40;;;;;;;6.57;2.80;;;22.70;41.90;;;;;;4948268;28;20059;-58
2023/07/17 08:58:09;;;;;;;4.53;2.38;;;22.70;41.30;;;;;;4947277;28;20435;-56
2023/07/17 09:00:37;;;;;;;6.13;2.72;;;22.70;41.20;;;;;;4947902;28;20523;-44
2023/07/17 09:03:04;;;;;;;6.25;2.80;;;22.80;41.70;;;;;;4948552;28;20082;-47
2023/07/17 09:05:31;;;;;;;3.88;2.15;;;22.80;41.50;;;;;;4947202;28;20353;-51
2023/07/17 09:08:00;;;;;;;6.30;2.78;;;22.90;41.50;;;;;;4948580;28;20515;-57
2023/07/17 09:10:28;;;;;;;7.05;3.33;;;23.00;40.60;;;;;;4947201;28;20055;-57
2023/07/17 09:12:57;;;;;;;7.88;3.05;;;23.00;40.40;;;;;;4948598;28;20496;-52
2023/07/17 09:15:25;;;;;;;4.47;2.72;;;23.00;40.00;;;;;;4946685;28;20059;-55
2023/07/17 09:17:53;;;;;;;6.28;2.83;;;23.10;40.50;;;;;;4947971;28;20059;-55
2023/07/17 09:20:21;;;;;;;5.07;2.92;;;23.10;40.20;;;;;;4947073;28;20058;-47
2023/07/17 09:22:49;;;;;;;5.78;2.50;;;23.20;40.50;;;;;;4947034;28;20051;-47
2023/07/17 09:25:18;;;;;;;6.72;2.72;;;23.20;40.70;;;;;;4948881;28;20058;-42
2023/07/17 09:27:46;;;;;;;5.53;2.78;;;23.30;40.50;;;;;;4948015;28;20055;-53
2023/07/17 09:30:15;;;;;;;9.82;3.22;;;23.30;40.40;;;;;;4948269;28;20057;-56
2023/07/17 09:32:43;;;;;;;8.60;3.45;;;23.40;40.30;;;;;;4946731;28;20419;-47
2023/07/17 09:35:12;;;;;;;5.13;2.92;;;23.50;40.40;;;;;;4946983;28;20518;-46
2023/07/17 09:37:41;;;;;;;8.00;3.00;;;23.50;40.40;;;;;;4947297;28;20055;-48
2023/07/17 09:40:11;;;;;;;9.57;3.50;;;23.50;39.70;;;;;;4947878;28;20059;-47
2023/07/17 09:42:41;;;;;;;7.43;2.70;;;23.60;40.20;;;;;;4947480;28;20062;-45
2023/07/17 09:45:11;;;;;;;4.15;2.70;;;23.60;40.00;;;;;;4947336;28;20055;-45
2023/07/17 09:47:39;;;;;;;5.20;2.78;;;23.60;39.80;;;;;;4947050;28;20047;-46
2023/07/17 09:50:09;;;;;;;10.35;2.60;;;23.70;40.00;;;;;;4946300;28;20629;-46
2023/07/17 09:52:36;;;;;;;4.88;2.42;;;23.70;39.90;;;;;;4946910;28;20361;-41
2023/07/17 09:55:03;;;;;;;4.55;2.45;;;23.80;39.50;;;;;;4947905;28;20059;-45
2023/07/17 09:57:34;;;;;;;5.15;2.95;;;23.80;39.50;;;;;;4946965;28;20051;-56
2023/07/17 10:00:13;;;;;;;7.35;2.90;;;23.80;39.00;;;;;;4946493;28;20092;-48
2023/07/17 10:02:41;;;;;;;7.78;3.30;;;23.90;39.10;;;;;;4946189;28;20055;-46
2023/07/17 10:05:08;;;;;;;5.80;3.05;;;24.00;38.40;;;;;;4946080;28;20070;-56
2023/07/17 10:07:38;;;;;;;12.00;2.47;;;24.00;38.50;;;;;;4945828;28;20051;-51
2023/07/17 10:10:07;;;;;;;5.20;3.10;;;24.00;39.20;;;;;;4947384;28;20542;-48
2023/07/17 10:12:34;;;;;;;7.00;3.13;;;24.00;39.30;;;;;;4946614;28;20058;-57
2023/07/17 10:15:04;;;;;;;4.72;3.03;;;24.10;38.60;;;;;;4947899;28;20074;-49
2023/07/17 10:17:33;;;;;;;6.15;3.25;;;24.10;38.90;;;;;;4945759;28;20613;-54
2023/07/17 10:20:03;;;;;;;4.30;2.58;;;24.10;38.50;;;;;;4945692;28;20059;-47
2023/07/17 10:22:35;;;;;;;3.83;2.30;;;24.10;38.10;;;;;;4945657;28;20058;-50
2023/07/17 10:25:23;;;;;;;7.63;3.03;;;24.20;38.00;;;;;;4947290;28;20055;-55
2023/07/17 10:27:55;;;;;;;8.63;2.70;;;24.20;36.80;;;;;;4946583;28;20490;-56
2023/07/17 10:30:27;;;;;;;5.97;3.20;;;24.20;37.30;;;;;;4947421;28;20089;-53
2023/07/17 10:33:14;;;;;;;5.75;2.58;;;24.20;37.90;;;;;;4946719;28;20499;-53
2023/07/17 10:35:49;;;;;;;6.45;2.85;;;24.20;38.10;;;;;;4945210;28;20400;-54
2023/07/17 10:38:19;;;;;;;11.68;3.47;;;24.30;37.80;;;;;;4945340;28;20051;-50
2023/07/17 10:40:46;;;;;;;7.47;3.40;;;24.30;37.80;;;;;;4945380;28;20085;-58
2023/07/17 10:43:17;;;;;;;4.88;3.10;;;24.30;38.10;;;;;;4945707;28;20062;-57
2023/07/17 10:45:46;;;;;;;6.55;3.08;;;24.30;37.10;;;;;;4946194;28;20051;-56
2023/07/17 10:48:14;;;;;;;6.65;3.40;;;24.30;36.90;;;;;;4946415;28;20059;-53
2023/07/17 10:50:49;;;;;;;5.75;2.80;;;24.30;37.70;;;;;;4945723;28;20719;-53
2023/07/17 10:53:16;;;;;;;4.50;2.60;;;24.40;38.10;;;;;;4946226;28;20059;-52
2023/07/17 10:55:46;;;;;;;8.30;2.92;;;24.40;37.50;;;;;;4947057;28;20059;-54
2023/07/17 10:58:13;;;;;;;7.28;2.83;;;24.40;37.20;;;;;;4945535;28;21169;-55
2023/07/17 11:00:42;;;;;;;6.03;2.80;;;24.40;37.20;;;;;;4946118;28;20058;-53
2023/07/17 11:03:11;;;;;;;4.57;2.30;;;24.50;37.60;;;;;;4946453;28;20058;-53
2023/07/17 11:05:39;;;;;;;4.88;2.60;;;24.50;37.40;;;;;;4945657;28;20054;-55
2023/07/17 11:08:06;;;;;;;5.00;2.50;;;24.50;37.70;;;;;;4945205;28;20051;-53
2023/07/17 11:10:35;;;;;;;5.00;2.60;;;24.60;37.50;;;;;;4946781;28;20067;-47
2023/07/17 11:13:03;;;;;;;4.50;2.28;;;24.60;37.20;;;;;;4946090;28;20526;-48
2023/07/17 11:15:32;;;;;;;4.78;2.40;;;24.60;37.00;;;;;;4946454;28;20059;-46
2023/07/17 11:18:00;;;;;;;9.95;2.97;;;24.70;36.60;;;;;;4945785;28;20058;-45
2023/07/17 11:20:30;;;;;;;9.10;3.13;;;24.70;36.70;;;;;;4945644;28;20075;-51
2023/07/17 11:22:58;;;;;;;6.45;3.10;;;24.70;36.20;;;;;;4948085;28;20058;-48
2023/07/17 11:25:28;;;;;;;7.18;3.05;;;24.70;36.50;;;;;;4947268;28;20047;-54
2023/07/17 11:27:57;;;;;;;6.47;3.08;;;24.70;36.10;;;;;;4946900;28;20051;-55
2023/07/17 11:30:28;;;;;;;6.78;3.38;;;24.70;36.20;;;;;;4946414;28;20063;-56
2023/07/17 11:33:07;;;;;;;4.90;3.15;;;24.70;36.20;;;;;;4946034;28;20051;-54
2023/07/17 11:35:46;;;;;;;6.78;2.95;;;24.70;36.40;;;;;;4945237;28;20054;-56
2023/07/17 11:38:15;;;;;;;5.22;2.40;;;24.70;36.50;;;;;;4946808;28;20055;-56
2023/07/17 11:40:53;;;;;;;7.10;2.90;;;24.80;36.90;;;;;;4946423;28;20055;-54
2023/07/17 11:43:29;;;;;;;5.00;2.67;;;24.80;36.40;;;;;;4946612;28;20128;-56
2023/07/17 11:46:01;;;;;;;6.78;2.85;;;24.80;36.30;;;;;;4949413;28;20062;-51
2023/07/17 11:48:29;;;;;;;5.85;2.58;;;24.80;36.20;;;;;;4949197;28;20047;-54
2023/07/17 11:50:58;;;;;;;6.43;3.05;;;24.90;36.60;;;;;;4947917;28;20419;-56
2023/07/17 11:53:26;;;;;;;4.40;2.47;;;24.90;36.10;;;;;;4950114;28;20055;-56
2023/07/17 11:55:54;;;;;;;5.57;2.85;;;25.00;36.20;;;;;;4949042;28;20051;-57
2023/07/17 11:58:23;;;;;;;5.35;2.63;;;25.00;35.80;;;;;;4948683;28;20059;-46
2023/07/17 12:00:51;;;;;;;5.38;3.30;;;25.00;35.90;;;;;;4949808;28;20063;-57
2023/07/17 12:03:19;;;;;;;7.40;3.40;;;25.00;34.80;;;;;;4948492;28;20054;-55
2023/07/17 12:05:46;;;;;;;4.70;2.80;;;25.10;35.40;;;;;;4948017;28;20051;-55
2023/07/17 12:08:16;;;;;;;7.75;3.20;;;25.10;35.90;;;;;;4949507;28;20051;-59
2023/07/17 12:10:43;;;;;;;6.95;3.38;;;25.10;36.10;;;;;;4950173;28;20507;-57
2023/07/17 12:13:10;;;;;;;7.78;3.25;;;25.10;35.50;;;;;;4949016;28;20415;-56
2023/07/17 12:15:38;;;;;;;5.68;2.90;;;25.10;35.80;;;;;;4948910;28;20074;-53
2023/07/17 12:18:05;;;;;;;7.50;3.10;;;25.10;36.40;;;;;;4949458;28;20360;-56
2023/07/17 12:20:33;;;;;;;5.53;3.03;;;25.10;35.60;;;;;;4947753;28;20059;-56
2023/07/17 12:23:03;;;;;;;5.15;3.20;;;25.10;35.10;;;;;;4948265;28;20423;-58
2023/07/17 12:25:31;;;;;;;4.22;2.92;;;25.20;35.20;;;;;;4949227;28;20062;-57
2023/07/17 12:28:00;;;;;;;8.68;3.72;;;25.20;35.20;;;;;;4948823;28;20055;-52
2023/07/17 12:30:29;;;;;;;4.22;2.60;;;25.10;35.20;;;;;;4948723;28;20055;-53
2023/07/17 12:32:58;;;;;;;6.97;3.00;;;25.20;35.60;;;;;;4948837;28;20081;-56
2023/07/17 12:35:25;;;;;;;6.75;3.47;;;25.20;35.20;;;;;;4947890;28;20062;-54
2023/07/17 12:37:53;;;;;;;6.13;3.38;;;25.20;35.40;;;;;;4948550;28;20059;-53
2023/07/17 12:40:20;;;;;;;5.90;2.80;;;25.20;35.70;;;;;;4948221;28;20059;-48
2023/07/17 12:42:49;;;;;;;6.07;3.17;;;25.30;35.90;;;;;;4948216;28;20058;-59
2023/07/17 12:45:16;;;;;;;6.63;3.30;;;25.30;36.70;;;;;;4950167;28;20415;-52
2023/07/17 12:47:43;;;;;;;4.85;3.03;;;25.30;36.30;;;;;;4948581;28;20066;-54
2023/07/17 12:50:11;;;;;;;5.97;2.97;;;25.40;35.60;;;;;;4948420;28;20055;-56